Decoded Metar for PAHN (HAINES in AK, USA) (IATA:HNS) | Meteo·Mobile Aviation Weather
aviador You're here:

PAHN Decoded Metar

HAINES in AK, USA
Report Time2018-10-23 09:54:00
UTC Time2018-10-23 10:29:01
Flight Rules mvfr MVFR
Wind290° at 11 kt
W.Decomp.*RWY 26: 10.8 kt HW 1.9 kt RCW
W.Rank290° ranks 2
Current wind is above 290° avg. (9.2)
Visibility8047 m
Phenomena:Light Rain
Mist
Clouds:Scattered 021 Hf
Overcast 043 Hf
Ceiling4,300 ft
Temp04°C (ISA -11)
Dew Point04°C (100% RH)
AAT-1.3°C
QNH1001 hPa
Density Alt-791 ft
Elevation16 ft
Report Wrong Elevation
Raw Report
PAHN 230954Z AUTO 29011KT 5SM -RA BR SCT021 OVC043 04/04 A2956 RMK
AO2 SLP011 P0003 T00440039 TSNO=

Extra information for PAHN:More info

Metar Taf Metar & Taf Last 4 Metars F.Rules Stats Wind Profile Meteogram Temp Stats Airport Information Weather charts Add Link Nearby VenuesMetar ALERT Operation Metar Decoded Social comments

AIRNAV info for PAHN